Time;durP1;ratioP1;P1;durP2;ratioP2;P2;SDS_P1;SDS_P2;PMS_P1;PMS_P2;Temp;Humidity;BMP_temperature;BMP_pressure;BME280_temperature;BME280_humidity;BME280_pressure;Samples;Min_cycle;Max_cycle;Signal;HPM_P1;HPM_P2
2022/10/09 00:01:10;;;;;;;6.82;1.90;;;7.60;99.90;;;;;;5007273;28;20033;-48
2022/10/09 00:03:37;;;;;;;4.35;1.63;;;7.60;99.90;;;;;;5002565;28;20102;-49
2022/10/09 00:06:07;;;;;;;6.53;2.63;;;7.60;99.90;;;;;;4998680;28;20026;-51
2022/10/09 00:08:42;;;;;;;4.15;1.23;;;7.60;99.90;;;;;;5003294;28;20023;-48
2022/10/09 00:11:20;;;;;;;3.40;2.13;;;7.60;99.90;;;;;;5002021;28;20109;-50
2022/10/09 00:13:46;;;;;;;5.75;1.55;;;7.60;99.90;;;;;;4993799;28;20022;-50
2022/10/09 00:16:14;;;;;;;8.38;1.90;;;7.60;99.90;;;;;;5004155;28;20109;-51
2022/10/09 00:18:40;;;;;;;3.83;1.55;;;7.60;99.90;;;;;;5001017;28;20544;-48
2022/10/09 00:21:13;;;;;;;4.18;1.48;;;7.60;99.90;;;;;;5018019;28;20022;-51
2022/10/09 00:23:39;;;;;;;3.30;1.35;;;7.50;99.90;;;;;;4999250;28;20486;-53
2022/10/09 00:26:05;;;;;;;4.20;1.52;;;7.50;99.90;;;;;;4999762;28;20098;-49
2022/10/09 00:28:31;;;;;;;9.15;2.35;;;7.50;99.90;;;;;;4996429;28;20019;-51
2022/10/09 00:30:57;;;;;;;5.53;1.83;;;7.50;99.90;;;;;;5001133;28;20037;-47
2022/10/09 00:33:23;;;;;;;5.20;1.85;;;7.50;99.90;;;;;;4999225;28;20025;-50
2022/10/09 00:35:49;;;;;;;9.77;2.08;;;7.50;99.90;;;;;;4998489;28;20022;-48
2022/10/09 00:38:15;;;;;;;6.97;2.08;;;7.40;99.90;;;;;;4998137;28;20032;-47
2022/10/09 00:40:40;;;;;;;3.70;1.40;;;7.50;99.90;;;;;;4995838;28;20034;-50
2022/10/09 00:43:36;;;;;;;4.75;2.00;;;7.40;99.90;;;;;;5002836;28;20029;-47
2022/10/09 00:46:01;;;;;;;2.60;1.20;;;7.40;99.90;;;;;;4999669;28;20037;-50
2022/10/09 00:48:27;;;;;;;5.30;1.75;;;7.40;99.90;;;;;;4998698;28;20022;-49
2022/10/09 00:50:56;;;;;;;4.90;1.67;;;7.40;99.90;;;;;;4999396;28;20034;-51
2022/10/09 00:53:25;;;;;;;3.63;1.92;;;7.30;99.90;;;;;;5000086;28;20869;-52
2022/10/09 00:55:51;;;;;;;2.33;1.40;;;7.30;99.90;;;;;;4993362;28;20034;-51
2022/10/09 00:58:18;;;;;;;8.15;1.92;;;7.40;99.90;;;;;;5002598;28;20068;-50
2022/10/09 01:00:43;;;;;;;4.50;1.45;;;7.30;99.90;;;;;;4997752;28;20034;-48
2022/10/09 01:03:09;;;;;;;4.65;1.63;;;7.30;99.90;;;;;;5004510;28;20037;-48
2022/10/09 01:06:09;;;;;;;5.60;2.00;;;7.30;99.90;;;;;;5006467;23;20038;-55
2022/10/09 01:08:44;;;;;;;3.38;1.88;;;7.40;99.90;;;;;;4994717;28;20432;-50
2022/10/09 01:11:19;;;;;;;4.07;2.33;;;7.30;99.90;;;;;;5003115;28;20026;-58
2022/10/09 01:14:01;;;;;;;4.70;2.35;;;7.30;99.90;;;;;;4995696;28;20074;-53
2022/10/09 01:16:31;;;;;;;4.28;1.85;;;7.30;99.90;;;;;;4990744;28;20018;-51
2022/10/09 01:19:26;;;;;;;2.40;1.35;;;7.30;99.90;;;;;;5000600;28;20034;-55
2022/10/09 01:21:57;;;;;;;6.85;2.33;;;7.30;99.90;;;;;;4993573;28;20563;-51
2022/10/09 01:24:45;;;;;;;5.70;1.73;;;7.30;99.90;;;;;;4994223;28;20029;-53
2022/10/09 01:27:22;;;;;;;7.30;1.88;;;7.30;99.90;;;;;;5013154;28;20034;-50
2022/10/09 01:29:52;;;;;;;7.70;1.77;;;7.20;99.90;;;;;;4995359;28;20114;-53
2022/10/09 01:32:22;;;;;;;7.45;2.70;;;7.20;99.90;;;;;;5001338;28;20030;-55
2022/10/09 01:34:49;;;;;;;5.30;2.25;;;7.20;99.90;;;;;;4989759;28;20505;-56
2022/10/09 01:37:17;;;;;;;3.53;1.83;;;7.20;99.90;;;;;;5000034;28;20038;-53
2022/10/09 01:39:45;;;;;;;3.83;1.90;;;7.20;99.90;;;;;;4995617;28;20034;-55
2022/10/09 01:42:15;;;;;;;4.07;1.35;;;7.20;99.90;;;;;;5000784;28;20357;-54
2022/10/09 01:44:41;;;;;;;5.60;1.88;;;7.20;99.90;;;;;;5004366;28;20030;-53
2022/10/09 01:47:13;;;;;;;7.32;2.05;;;7.20;99.90;;;;;;4997994;28;20034;-53
2022/10/09 01:49:38;;;;;;;7.97;2.08;;;7.20;99.90;;;;;;4997887;28;20035;-55
2022/10/09 01:52:17;;;;;;;6.70;1.65;;;7.20;99.90;;;;;;5000547;28;20492;-56
2022/10/09 01:54:58;;;;;;;6.30;2.10;;;7.20;99.90;;;;;;4999536;28;20091;-55
2022/10/09 01:57:36;;;;;;;8.38;2.90;;;7.20;99.90;;;;;;4992502;28;20547;-53
2022/10/09 02:00:06;;;;;;;3.45;1.60;;;7.20;99.90;;;;;;4993768;28;20093;-53
2022/10/09 02:02:33;;;;;;;6.70;2.45;;;7.30;99.90;;;;;;5002475;28;20415;-52
2022/10/09 02:05:00;;;;;;;12.55;2.63;;;7.30;99.90;;;;;;4992406;28;20034;-56
2022/10/09 02:07:26;;;;;;;5.80;2.38;;;7.30;99.90;;;;;;5002004;28;20184;-52
2022/10/09 02:09:52;;;;;;;6.57;1.95;;;7.30;99.90;;;;;;5001531;28;20571;-51
2022/10/09 02:12:20;;;;;;;9.90;2.72;;;7.30;99.90;;;;;;4996826;28;20026;-51
2022/10/09 02:14:46;;;;;;;7.00;2.20;;;7.30;99.90;;;;;;4997619;28;20500;-51
2022/10/09 02:17:16;;;;;;;7.53;1.80;;;7.30;99.90;;;;;;5000826;28;20092;-51
2022/10/09 02:19:47;;;;;;;5.75;2.03;;;7.40;99.90;;;;;;4994873;28;20038;-50
2022/10/09 02:22:19;;;;;;;5.25;2.60;;;7.40;99.90;;;;;;5003446;28;20033;-51
2022/10/09 02:24:45;;;;;;;5.25;2.38;;;7.30;99.90;;;;;;5001843;28;20052;-52
2022/10/09 02:27:12;;;;;;;3.35;1.73;;;7.40;99.90;;;;;;4998160;28;20038;-55
2022/10/09 02:29:40;;;;;;;5.20;1.70;;;7.40;99.90;;;;;;4997445;28;20466;-53
2022/10/09 02:32:05;;;;;;;6.53;1.50;;;7.40;99.90;;;;;;4996009;28;20030;-56
2022/10/09 02:34:31;;;;;;;7.22;2.28;;;7.40;99.90;;;;;;5000218;28;20029;-56
2022/10/09 02:36:57;;;;;;;3.45;2.28;;;7.30;99.90;;;;;;5000491;28;20057;-54
2022/10/09 02:39:22;;;;;;;1.52;1.33;;;7.40;99.90;;;;;;4992655;28;20416;-55
2022/10/09 02:41:48;;;;;;;3.90;1.80;;;7.40;99.90;;;;;;5003075;28;20018;-53
2022/10/09 02:44:13;;;;;;;6.72;2.30;;;7.40;99.90;;;;;;5000733;28;20054;-54
2022/10/09 02:46:39;;;;;;;3.65;1.90;;;7.40;99.90;;;;;;5003270;28;20014;-53
2022/10/09 02:49:05;;;;;;;3.65;1.67;;;7.30;99.90;;;;;;5000188;28;20395;-50
2022/10/09 02:51:31;;;;;;;4.47;2.38;;;7.30;99.90;;;;;;5001141;28;20018;-53
2022/10/09 02:53:58;;;;;;;6.15;2.40;;;7.30;99.90;;;;;;5000258;28;20052;-52
2022/10/09 02:56:24;;;;;;;12.45;1.90;;;7.30;99.90;;;;;;4997373;28;20028;-54
2022/10/09 02:58:49;;;;;;;7.13;2.40;;;7.30;99.90;;;;;;4997963;28;20105;-52
2022/10/09 03:01:15;;;;;;;7.13;2.10;;;7.30;99.90;;;;;;5005678;28;20446;-51
2022/10/09 03:03:41;;;;;;;6.65;1.85;;;7.30;99.90;;;;;;4998306;28;20076;-52
2022/10/09 03:06:12;;;;;;;3.60;1.40;;;7.30;99.90;;;;;;4997399;28;20041;-52
2022/10/09 03:08:42;;;;;;;3.40;1.45;;;7.30;99.90;;;;;;4997715;28;20080;-52
2022/10/09 03:11:09;;;;;;;3.05;1.48;;;7.30;99.90;;;;;;4994824;28;20038;-52
2022/10/09 03:13:34;;;;;;;7.25;1.73;;;7.30;99.90;;;;;;5001164;28;20093;-56
2022/10/09 03:16:15;;;;;;;2.33;1.70;;;7.30;99.90;;;;;;4991807;28;20030;-55
2022/10/09 03:18:41;;;;;;;7.78;2.28;;;7.30;99.90;;;;;;4998500;28;20041;-54
2022/10/09 03:21:16;;;;;;;5.85;2.17;;;7.30;99.90;;;;;;4995351;28;20381;-54
2022/10/09 03:23:42;;;;;;;5.40;1.92;;;7.30;99.90;;;;;;5001997;28;20053;-54
2022/10/09 03:26:09;;;;;;;11.40;2.47;;;7.30;99.90;;;;;;5000320;28;20057;-56
2022/10/09 03:28:40;;;;;;;4.05;1.80;;;7.30;99.90;;;;;;4998075;28;20138;-57
2022/10/09 03:31:06;;;;;;;7.00;2.45;;;7.30;99.90;;;;;;4999485;28;20026;-55
2022/10/09 03:33:33;;;;;;;4.20;2.45;;;7.30;99.90;;;;;;4999699;28;20504;-57
2022/10/09 03:35:59;;;;;;;6.63;1.67;;;7.30;99.90;;;;;;4997662;28;20149;-54
2022/10/09 03:38:25;;;;;;;6.50;1.67;;;7.30;99.90;;;;;;5001285;28;20030;-54
2022/10/09 03:40:50;;;;;;;7.07;2.28;;;7.30;99.90;;;;;;4999310;28;20494;-55
2022/10/09 03:43:16;;;;;;;2.03;1.20;;;7.30;99.90;;;;;;4997619;28;20034;-56
2022/10/09 03:45:42;;;;;;;5.65;1.95;;;7.30;99.90;;;;;;4996327;28;20030;-58
2022/10/09 03:48:10;;;;;;;5.18;1.65;;;7.30;99.90;;;;;;5000228;28;20034;-53
2022/10/09 03:50:37;;;;;;;3.92;1.48;;;7.30;99.90;;;;;;4999852;28;20036;-57
2022/10/09 03:53:03;;;;;;;5.13;2.33;;;7.30;99.90;;;;;;5000613;28;20038;-55
2022/10/09 03:55:29;;;;;;;5.43;1.88;;;7.20;99.90;;;;;;4998975;28;20026;-54
2022/10/09 03:57:55;;;;;;;4.15;1.50;;;7.20;99.90;;;;;;5000150;28;20560;-54
2022/10/09 04:00:20;;;;;;;4.95;1.80;;;7.20;99.90;;;;;;5000299;28;20485;-55
2022/10/09 04:02:46;;;;;;;6.55;2.22;;;7.20;99.90;;;;;;5000932;28;20021;-54
2022/10/09 04:05:12;;;;;;;5.80;1.77;;;7.20;99.90;;;;;;5000405;28;20522;-55
2022/10/09 04:07:37;;;;;;;3.75;1.70;;;7.10;99.90;;;;;;5000168;28;20157;-51
2022/10/09 04:10:03;;;;;;;12.32;3.15;;;7.10;99.90;;;;;;4991458;28;20066;-51
2022/10/09 04:12:29;;;;;;;9.20;3.08;;;7.10;99.90;;;;;;5001171;28;20026;-54
2022/10/09 04:14:54;;;;;;;5.38;1.60;;;7.00;99.90;;;;;;4999836;28;20137;-53
2022/10/09 04:17:20;;;;;;;5.00;1.70;;;7.00;99.90;;;;;;4996898;28;20061;-58
2022/10/09 04:19:45;;;;;;;9.30;2.47;;;7.00;99.90;;;;;;5001777;28;20038;-52
2022/10/09 04:22:11;;;;;;;4.57;1.30;;;6.90;99.90;;;;;;4999862;28;20075;-55
2022/10/09 04:24:36;;;;;;;8.57;2.88;;;6.90;99.90;;;;;;5000423;28;20029;-54
2022/10/09 04:27:02;;;;;;;5.75;1.67;;;6.90;99.90;;;;;;4999770;28;20084;-52
2022/10/09 04:29:28;;;;;;;5.38;2.05;;;6.90;99.90;;;;;;4999583;28;20097;-51
2022/10/09 04:31:53;;;;;;;6.78;2.10;;;6.80;99.90;;;;;;5003006;28;20578;-54
2022/10/09 04:34:19;;;;;;;3.95;2.13;;;6.80;99.90;;;;;;4998087;28;20500;-56
2022/10/09 04:36:44;;;;;;;7.68;1.98;;;6.80;99.90;;;;;;5004309;28;20128;-54
2022/10/09 04:39:10;;;;;;;8.45;1.75;;;6.70;99.90;;;;;;5001390;28;20091;-56
2022/10/09 04:41:35;;;;;;;3.97;1.58;;;6.70;99.90;;;;;;5004074;28;20113;-53
2022/10/09 04:44:01;;;;;;;2.20;2.00;;;6.70;99.90;;;;;;5002702;28;20034;-56
2022/10/09 04:46:27;;;;;;;8.15;2.72;;;6.60;99.90;;;;;;4997459;28;20044;-54
2022/10/09 04:48:52;;;;;;;4.68;1.98;;;6.60;99.90;;;;;;4995927;28;20445;-56
2022/10/09 04:51:18;;;;;;;5.82;2.03;;;6.60;99.90;;;;;;4998796;28;20435;-53
2022/10/09 04:53:44;;;;;;;3.88;2.13;;;6.60;99.90;;;;;;4996593;28;20038;-55
2022/10/09 04:56:13;;;;;;;4.47;2.17;;;6.50;99.90;;;;;;4996577;28;20029;-53
2022/10/09 04:58:40;;;;;;;3.78;1.80;;;6.50;99.90;;;;;;4999413;28;20031;-54
2022/10/09 05:01:12;;;;;;;10.00;2.65;;;6.50;99.90;;;;;;5004327;28;20034;-52
2022/10/09 05:03:37;;;;;;;5.45;2.13;;;6.50;99.90;;;;;;4998605;28;20030;-53
2022/10/09 05:06:05;;;;;;;3.63;2.22;;;6.50;99.90;;;;;;5003337;28;20317;-51
2022/10/09 05:08:31;;;;;;;4.20;2.03;;;6.40;99.90;;;;;;4999928;28;20030;-55
2022/10/09 05:11:01;;;;;;;5.43;1.60;;;6.40;99.90;;;;;;4995213;28;20480;-52
2022/10/09 05:13:31;;;;;;;7.28;2.30;;;6.30;99.90;;;;;;5004655;28;20080;-55
2022/10/09 05:16:01;;;;;;;2.97;2.08;;;6.30;99.90;;;;;;5001041;28;20035;-52
2022/10/09 05:18:27;;;;;;;3.17;1.90;;;6.30;99.90;;;;;;5005362;28;20066;-54
2022/10/09 05:20:53;;;;;;;6.38;2.13;;;6.30;99.90;;;;;;5000110;28;20140;-52
2022/10/09 05:23:18;;;;;;;3.90;2.20;;;6.30;99.90;;;;;;5004429;28;20097;-56
2022/10/09 05:25:56;;;;;;;3.30;2.15;;;6.30;99.90;;;;;;4995856;28;20026;-55
2022/10/09 05:28:22;;;;;;;3.92;1.63;;;6.20;99.90;;;;;;4996808;28;20026;-55
2022/10/09 05:30:48;;;;;;;4.32;1.77;;;6.20;99.90;;;;;;5000824;28;20358;-57
2022/10/09 05:33:13;;;;;;;5.78;2.47;;;6.20;99.90;;;;;;5001407;28;20022;-54
2022/10/09 05:35:39;;;;;;;3.53;1.50;;;6.10;99.90;;;;;;5004006;28;20029;-55
2022/10/09 05:38:04;;;;;;;6.72;1.98;;;6.10;99.90;;;;;;5000855;28;20062;-54
2022/10/09 05:40:30;;;;;;;5.95;2.38;;;6.10;99.90;;;;;;5002374;28;20030;-58
2022/10/09 05:42:55;;;;;;;6.43;2.25;;;6.10;99.90;;;;;;4995339;28;20132;-57
2022/10/09 05:45:21;;;;;;;11.52;2.80;;;6.10;99.90;;;;;;4996557;28;20026;-56
2022/10/09 05:47:47;;;;;;;11.15;2.28;;;6.00;99.90;;;;;;5000893;28;20521;-58
2022/10/09 05:50:13;;;;;;;7.30;2.63;;;6.00;99.90;;;;;;4995814;28;20030;-51
2022/10/09 05:52:38;;;;;;;8.52;3.03;;;6.00;99.90;;;;;;5003028;28;20480;-54
2022/10/09 05:55:05;;;;;;;4.22;2.25;;;6.00;99.90;;;;;;4993042;28;20023;-53
2022/10/09 05:57:31;;;;;;;6.25;2.38;;;6.00;99.90;;;;;;5000432;28;20500;-52
2022/10/09 05:59:57;;;;;;;5.63;2.20;;;6.00;99.90;;;;;;5000929;28;20029;-51
2022/10/09 06:02:22;;;;;;;3.45;2.22;;;6.00;99.90;;;;;;4999177;28;20026;-53
2022/10/09 06:04:48;;;;;;;8.30;2.90;;;6.00;99.90;;;;;;4994488;28;20088;-56
2022/10/09 06:07:13;;;;;;;14.93;3.17;;;6.00;99.90;;;;;;5000716;28;20026;-51
2022/10/09 06:09:39;;;;;;;5.70;2.50;;;6.00;99.90;;;;;;5000373;28;20196;-52
2022/10/09 06:12:05;;;;;;;3.53;2.28;;;6.00;99.90;;;;;;4996759;28;20022;-53
2022/10/09 06:14:30;;;;;;;3.10;1.90;;;6.00;99.90;;;;;;5002139;28;20030;-53
2022/10/09 06:16:57;;;;;;;5.72;3.10;;;6.00;99.90;;;;;;4994987;28;20034;-56
2022/10/09 06:19:23;;;;;;;6.30;2.78;;;6.00;99.90;;;;;;5002107;28;20069;-55
2022/10/09 06:21:49;;;;;;;3.33;2.78;;;6.00;99.90;;;;;;4993392;28;20065;-53
2022/10/09 06:24:24;;;;;;;2.45;2.15;;;6.00;99.90;;;;;;4996309;28;20022;-55
2022/10/09 06:26:50;;;;;;;3.45;2.65;;;6.00;99.90;;;;;;4999693;28;20084;-54
2022/10/09 06:29:15;;;;;;;5.40;3.15;;;6.10;99.90;;;;;;4997793;28;20042;-54
2022/10/09 06:31:41;;;;;;;9.15;2.92;;;6.10;99.90;;;;;;5001306;28;20146;-51
2022/10/09 06:34:08;;;;;;;4.75;2.95;;;6.10;99.90;;;;;;4994415;28;20022;-55
2022/10/09 06:36:35;;;;;;;5.65;3.08;;;6.10;99.90;;;;;;5001842;28;20049;-54
2022/10/09 06:39:04;;;;;;;6.38;3.00;;;6.10;99.90;;;;;;4994604;28;20066;-56
2022/10/09 06:41:30;;;;;;;4.88;3.25;;;6.10;99.90;;;;;;5001819;28;20025;-55
2022/10/09 06:44:00;;;;;;;5.10;3.35;;;6.20;99.90;;;;;;4994842;28;20039;-54
2022/10/09 06:46:32;;;;;;;7.13;3.78;;;6.20;99.90;;;;;;5001548;28;20399;-52
2022/10/09 06:48:59;;;;;;;7.22;3.22;;;6.20;99.90;;;;;;4994914;28;20030;-52
2022/10/09 06:51:26;;;;;;;6.25;3.72;;;6.20;99.90;;;;;;5001479;28;20032;-51
2022/10/09 06:53:55;;;;;;;5.50;3.38;;;6.30;99.90;;;;;;5000744;28;20034;-53
2022/10/09 06:56:22;;;;;;;8.25;3.72;;;6.40;99.90;;;;;;4997795;28;20389;-51
2022/10/09 06:58:49;;;;;;;6.65;3.55;;;6.40;99.90;;;;;;4992364;28;20022;-53
2022/10/09 07:01:23;;;;;;;9.55;4.00;;;6.50;99.90;;;;;;4995576;28;20058;-52
2022/10/09 07:03:56;;;;;;;8.57;3.75;;;6.50;99.90;;;;;;4988373;28;20068;-56
2022/10/09 07:06:27;;;;;;;9.68;3.80;;;6.60;99.90;;;;;;5017612;23;20042;-52
2022/10/09 07:08:57;;;;;;;8.15;4.43;;;6.60;99.90;;;;;;4990538;28;20027;-51
2022/10/09 07:11:26;;;;;;;6.85;3.75;;;6.70;99.90;;;;;;4994505;28;20121;-50
2022/10/09 07:13:54;;;;;;;5.88;3.75;;;6.70;99.90;;;;;;4995133;28;20029;-52
2022/10/09 07:16:23;;;;;;;10.93;4.45;;;6.80;99.90;;;;;;4987616;28;20034;-53
2022/10/09 07:18:48;;;;;;;7.15;3.95;;;6.90;99.90;;;;;;4989255;28;20048;-51
2022/10/09 07:21:15;;;;;;;8.93;4.75;;;6.90;99.90;;;;;;4981045;28;20113;-52
2022/10/09 07:23:41;;;;;;;9.60;4.80;;;7.00;99.90;;;;;;4989074;28;20028;-55
2022/10/09 07:26:15;;;;;;;10.52;4.65;;;7.10;99.90;;;;;;4989303;28;20026;-52
2022/10/09 07:28:41;;;;;;;8.18;4.60;;;7.10;99.90;;;;;;4989054;28;20107;-48
2022/10/09 07:31:07;;;;;;;8.68;4.70;;;7.20;99.90;;;;;;4987791;28;20066;-50
2022/10/09 07:33:33;;;;;;;10.48;5.00;;;7.30;99.90;;;;;;4988647;28;20489;-51
2022/10/09 07:36:00;;;;;;;6.85;4.53;;;7.30;99.90;;;;;;4988821;28;20093;-49
2022/10/09 07:38:26;;;;;;;10.20;4.38;;;7.40;99.90;;;;;;4987176;28;20058;-49
2022/10/09 07:40:52;;;;;;;13.18;5.93;;;7.50;99.90;;;;;;4989011;28;20034;-51
2022/10/09 07:43:19;;;;;;;8.18;5.45;;;7.60;99.90;;;;;;4988985;28;20053;-50
2022/10/09 07:45:44;;;;;;;12.20;4.80;;;7.60;99.90;;;;;;4988392;28;20105;-50
2022/10/09 07:48:10;;;;;;;10.52;4.80;;;7.60;99.90;;;;;;4988496;28;20098;-49
2022/10/09 07:50:36;;;;;;;10.05;4.38;;;7.70;99.90;;;;;;4981063;28;20031;-48
2022/10/09 07:53:01;;;;;;;12.73;4.72;;;7.70;99.90;;;;;;4988097;28;20425;-48
2022/10/09 07:55:27;;;;;;;10.70;4.88;;;7.80;99.90;;;;;;4988477;28;20506;-51
2022/10/09 07:57:53;;;;;;;11.50;5.82;;;7.90;99.90;;;;;;4988759;28;20022;-50
2022/10/09 08:00:18;;;;;;;8.63;5.28;;;8.00;99.90;;;;;;4988924;28;20181;-48
2022/10/09 08:02:44;;;;;;;10.63;4.68;;;8.10;99.90;;;;;;4991290;28;20393;-51
2022/10/09 08:05:09;;;;;;;11.57;5.65;;;8.20;99.90;;;;;;4984282;28;20459;-52
2022/10/09 08:07:35;;;;;;;10.80;5.65;;;8.30;99.90;;;;;;4992980;28;20018;-50
2022/10/09 08:10:02;;;;;;;11.60;5.47;;;8.40;99.90;;;;;;4990973;28;20477;-48
2022/10/09 08:12:27;;;;;;;11.25;5.60;;;8.60;99.90;;;;;;4992278;28;20038;-52
2022/10/09 08:14:53;;;;;;;13.40;5.13;;;8.70;99.90;;;;;;4991972;28;20065;-51
2022/10/09 08:17:18;;;;;;;12.35;6.05;;;8.80;99.90;;;;;;4990067;28;20092;-47
2022/10/09 08:19:44;;;;;;;10.95;5.15;;;8.90;99.90;;;;;;4987919;28;20030;-49
2022/10/09 08:22:10;;;;;;;8.65;5.95;;;9.10;99.90;;;;;;4989934;28;20019;-48
2022/10/09 08:24:37;;;;;;;10.18;5.15;;;9.20;99.90;;;;;;4991128;28;20176;-48
2022/10/09 08:27:02;;;;;;;11.98;5.45;;;9.30;99.90;;;;;;4982829;28;20093;-50
2022/10/09 08:29:28;;;;;;;11.10;5.07;;;9.40;99.90;;;;;;4989979;28;20105;-51
2022/10/09 08:31:54;;;;;;;8.27;4.90;;;9.40;99.90;;;;;;4988469;28;20450;-50
2022/10/09 08:34:19;;;;;;;7.82;4.32;;;9.60;99.90;;;;;;4992495;28;20014;-50
2022/10/09 08:36:45;;;;;;;6.53;4.20;;;9.60;99.90;;;;;;4992328;28;20022;-47
2022/10/09 08:39:10;;;;;;;9.88;5.00;;;9.70;99.90;;;;;;4991149;28;20202;-49
2022/10/09 08:41:51;;;;;;;5.25;3.70;;;9.80;99.90;;;;;;4991738;28;20088;-47
2022/10/09 08:44:23;;;;;;;8.60;3.47;;;9.80;99.90;;;;;;4989094;28;20037;-49
2022/10/09 08:47:08;;;;;;;8.45;3.35;;;10.00;99.90;;;;;;4992047;28;20389;-50
2022/10/09 08:49:42;;;;;;;6.50;3.60;;;10.00;99.90;;;;;;4990743;28;20069;-49
2022/10/09 08:52:16;;;;;;;8.48;3.35;;;10.20;99.90;;;;;;4991845;28;20034;-51
2022/10/09 08:54:42;;;;;;;7.47;3.65;;;10.20;99.90;;;;;;4991790;28;20097;-49
2022/10/09 08:57:13;;;;;;;6.78;3.20;;;10.30;99.90;;;;;;4991484;28;20161;-47
2022/10/09 08:59:39;;;;;;;4.90;2.70;;;10.40;99.90;;;;;;4991713;28;20030;-50
2022/10/09 09:02:30;;;;;;;5.93;2.67;;;10.40;99.90;;;;;;5006099;28;20027;-49
2022/10/09 09:05:07;;;;;;;8.40;3.05;;;10.50;99.90;;;;;;4991475;28;20026;-47
2022/10/09 09:07:53;;;;;;;8.82;2.88;;;10.60;99.90;;;;;;4990059;28;20107;-50
2022/10/09 09:10:37;;;;;;;6.15;3.10;;;10.70;99.90;;;;;;4990016;28;20097;-47
2022/10/09 09:13:17;;;;;;;6.95;3.15;;;10.80;99.90;;;;;;4990476;28;20073;-47
2022/10/09 09:15:48;;;;;;;6.15;2.70;;;10.80;99.90;;;;;;4987257;28;20026;-45
2022/10/09 09:18:37;;;;;;;13.63;3.83;;;10.90;99.90;;;;;;4982805;28;20030;-49
2022/10/09 09:21:23;;;;;;;5.40;2.45;;;11.00;99.90;;;;;;4989895;28;20022;-47
2022/10/09 09:23:49;;;;;;;5.40;2.78;;;11.00;99.90;;;;;;4991114;28;20549;-47
2022/10/09 09:26:17;;;;;;;8.85;2.47;;;11.10;99.90;;;;;;4990098;28;20058;-50
2022/10/09 09:28:43;;;;;;;6.15;2.40;;;11.20;99.90;;;;;;4990822;28;20022;-46
2022/10/09 09:31:17;;;;;;;6.25;2.03;;;11.30;99.90;;;;;;4990541;28;20524;-54
2022/10/09 09:34:02;;;;;;;10.57;2.85;;;11.30;99.90;;;;;;4990933;28;20033;-45
2022/10/09 09:36:39;;;;;;;4.95;2.10;;;11.40;99.90;;;;;;4989389;28;20034;-45
2022/10/09 09:39:05;;;;;;;6.40;1.58;;;11.40;99.90;;;;;;4990870;28;20471;-45
2022/10/09 09:41:30;;;;;;;9.70;1.65;;;11.50;99.90;;;;;;4986724;28;20053;-48
2022/10/09 09:43:56;;;;;;;11.75;2.00;;;11.60;99.90;;;;;;4990749;28;20094;-47
2022/10/09 09:46:25;;;;;;;2.95;1.30;;;11.70;99.90;;;;;;4990364;28;20038;-47
2022/10/09 09:48:52;;;;;;;6.68;1.50;;;11.70;99.90;;;;;;4991243;28;20029;-45
2022/10/09 09:51:26;;;;;;;5.13;1.80;;;11.70;99.90;;;;;;4989049;28;20072;-46
2022/10/09 09:54:03;;;;;;;5.57;1.63;;;11.80;99.90;;;;;;4990944;28;20030;-46
2022/10/09 09:56:39;;;;;;;2.85;1.10;;;11.80;99.90;;;;;;4988565;28;20057;-46
2022/10/09 09:59:06;;;;;;;10.88;1.80;;;11.90;99.90;;;;;;4979661;28;20037;-45
2022/10/09 10:01:32;;;;;;;3.67;1.00;;;11.90;99.90;;;;;;4990072;28;20039;-45
2022/10/09 10:04:01;;;;;;;4.60;1.45;;;12.00;99.90;;;;;;4990382;28;20512;-45
2022/10/09 10:06:42;;;;;;;5.65;1.30;;;12.00;99.90;;;;;;4990096;28;20040;-48
2022/10/09 10:09:16;;;;;;;5.25;1.05;;;12.00;99.90;;;;;;4990184;28;20414;-45
2022/10/09 10:11:51;;;;;;;5.82;1.50;;;12.10;99.90;;;;;;4990068;28;20085;-47
2022/10/09 10:14:16;;;;;;;5.68;1.55;;;12.20;99.90;;;;;;4989745;28;20022;-45
2022/10/09 10:16:46;;;;;;;5.57;1.63;;;12.20;99.90;;;;;;4990484;28;20036;-46
2022/10/09 10:19:35;;;;;;;3.70;1.67;;;12.30;99.90;;;;;;4989694;28;20022;-48
2022/10/09 10:22:06;;;;;;;4.22;1.58;;;12.30;99.90;;;;;;5004456;28;20027;-47
2022/10/09 10:24:38;;;;;;;8.38;1.88;;;12.40;99.90;;;;;;4989638;28;20109;-47
2022/10/09 10:27:19;;;;;;;6.07;1.88;;;12.50;99.90;;;;;;4988390;28;20026;-49
2022/10/09 10:29:46;;;;;;;6.70;1.42;;;12.50;99.90;;;;;;4989862;28;20018;-47
2022/10/09 10:32:50;;;;;;;6.78;1.88;;;12.50;99.90;;;;;;4989596;28;20030;-47
2022/10/09 10:35:21;;;;;;;4.60;0.80;;;12.60;99.90;;;;;;4985585;28;20034;-47
2022/10/09 10:38:10;;;;;;;4.22;1.02;;;12.60;99.90;;;;;;4989637;28;20440;-46
2022/10/09 10:40:52;;;;;;;4.00;1.10;;;12.60;99.90;;;;;;4987348;28;20033;-46
2022/10/09 10:43:27;;;;;;;4.80;1.25;;;12.60;99.90;;;;;;4982076;28;20085;-46
2022/10/09 10:46:25;;;;;;;2.75;1.13;;;12.60;99.90;;;;;;4988902;28;20029;-50
2022/10/09 10:48:51;;;;;;;4.57;1.50;;;12.60;99.90;;;;;;4986534;28;20019;-46
2022/10/09 10:51:45;;;;;;;6.70;1.45;;;12.70;99.90;;;;;;4990083;28;20026;-47
2022/10/09 10:54:44;;;;;;;6.38;1.42;;;12.80;99.90;;;;;;4989693;28;20026;-49
2022/10/09 10:57:19;;;;;;;3.88;1.33;;;12.70;99.90;;;;;;4988938;28;20044;-46
2022/10/09 11:00:08;;;;;;;5.20;1.52;;;12.80;99.90;;;;;;4981699;28;20027;-46
2022/10/09 11:03:19;;;;;;;2.38;0.70;;;12.70;99.90;;;;;;4983951;28;20033;-46
2022/10/09 11:05:57;;;;;;;5.03;1.85;;;12.60;99.90;;;;;;4985516;28;20022;-46
2022/10/09 11:08:37;;;;;;;8.07;1.17;;;12.70;99.90;;;;;;4985319;28;20038;-46
2022/10/09 11:11:32;;;;;;;9.18;1.33;;;12.70;99.90;;;;;;4989680;28;20018;-49
2022/10/09 11:14:23;;;;;;;4.28;1.40;;;12.70;99.90;;;;;;4989425;28;20109;-46
2022/10/09 11:17:29;;;;;;;4.55;1.15;;;12.70;99.90;;;;;;4989476;28;20543;-48
2022/10/09 11:20:16;;;;;;;5.38;1.02;;;12.80;99.90;;;;;;4980378;28;20572;-49
2022/10/09 11:23:04;;;;;;;;;;;12.80;99.90;;;;;;4985630;28;20026;-48
2022/10/09 11:25:34;;;;;;;2.42;0.90;;;12.90;99.90;;;;;;4982873;28;19992;-48
2022/10/09 11:28:12;;;;;;;1.85;0.93;;;13.00;99.90;;;;;;4986343;28;20023;-46
2022/10/09 11:30:53;;;;;;;5.93;1.80;;;13.00;99.90;;;;;;4989576;28;20113;-50
2022/10/09 11:33:29;;;;;;;5.40;1.38;;;13.20;99.90;;;;;;4989181;28;20022;-46
2022/10/09 11:36:03;;;;;;;6.50;1.00;;;13.30;99.90;;;;;;4989862;28;20037;-46
2022/10/09 11:38:36;;;;;;;4.57;1.25;;;13.30;99.90;;;;;;4993570;28;20093;-50
2022/10/09 11:41:03;;;;;;;5.25;1.30;;;13.30;99.90;;;;;;4987443;28;20062;-45
2022/10/09 11:43:32;;;;;;;5.25;1.45;;;13.30;99.90;;;;;;4992878;28;20057;-48
2022/10/09 11:46:00;;;;;;;4.03;1.05;;;13.30;99.90;;;;;;4993102;28;20117;-47
2022/10/09 11:48:53;;;;;;;3.60;1.02;;;13.30;99.90;;;;;;4993599;28;20078;-49
2022/10/09 11:51:33;;;;;;;4.75;1.48;;;13.30;99.90;;;;;;4988355;28;20552;-46
2022/10/09 11:54:00;;;;;;;1.27;0.70;;;13.30;99.90;;;;;;4991408;28;20030;-47
2022/10/09 11:56:28;;;;;;;4.68;0.98;;;13.30;99.90;;;;;;4992791;28;20381;-46
2022/10/09 11:58:56;;;;;;;3.83;0.80;;;13.30;99.90;;;;;;4988926;28;20057;-47
2022/10/09 12:01:24;;;;;;;3.83;1.30;;;13.30;99.90;;;;;;4992946;28;20105;-50
2022/10/09 12:04:07;;;;;;;3.88;0.90;;;13.20;99.90;;;;;;4989623;28;20084;-47
2022/10/09 12:06:49;;;;;;;4.63;1.42;;;13.20;99.90;;;;;;4987361;28;20072;-48
2022/10/09 12:09:25;;;;;;;7.28;1.42;;;13.10;99.90;;;;;;4985235;28;20084;-48
2022/10/09 12:12:00;;;;;;;2.72;1.25;;;13.20;99.90;;;;;;4989192;28;20022;-47
2022/10/09 12:14:28;;;;;;;3.90;1.20;;;13.20;99.90;;;;;;4992463;28;20046;-47
2022/10/09 12:16:55;;;;;;;2.50;1.10;;;13.30;99.90;;;;;;4992616;28;20014;-49
2022/10/09 12:19:23;;;;;;;8.38;1.70;;;13.40;99.90;;;;;;4992626;28;20084;-48
2022/10/09 12:21:51;;;;;;;2.17;1.23;;;13.40;99.90;;;;;;4993218;28;20019;-48
2022/10/09 12:24:26;;;;;;;2.47;0.90;;;13.40;99.90;;;;;;4992674;28;20022;-47
2022/10/09 12:26:54;;;;;;;2.50;0.87;;;13.60;99.90;;;;;;4992456;28;20501;-47
2022/10/09 12:30:03;;;;;;;3.47;0.90;;;13.60;99.90;;;;;;4983899;28;20454;-46
2022/10/09 12:32:34;;;;;;;8.32;1.55;;;13.70;99.90;;;;;;4989525;28;20104;-50
2022/10/09 12:35:03;;;;;;;4.85;1.17;;;13.70;99.90;;;;;;4992255;28;20033;-47
2022/10/09 12:37:34;;;;;;;3.13;1.00;;;13.80;99.90;;;;;;4988920;28;20026;-47
2022/10/09 12:40:14;;;;;;;4.65;1.30;;;13.90;99.90;;;;;;4992460;28;20483;-47
2022/10/09 12:42:42;;;;;;;2.85;1.42;;;13.90;99.90;;;;;;5006365;28;20029;-48
2022/10/09 12:45:21;;;;;;;6.78;3.00;;;13.90;99.90;;;;;;4992607;28;20386;-47
2022/10/09 12:47:46;;;;;;;4.57;1.33;;;13.90;99.90;;;;;;4985574;28;20027;-47
2022/10/09 12:50:23;;;;;;;3.97;1.00;;;13.90;99.90;;;;;;4991845;28;20022;-48
2022/10/09 12:52:52;;;;;;;3.65;1.25;;;13.90;99.90;;;;;;4991969;28;20053;-49
2022/10/09 12:55:23;;;;;;;3.05;1.33;;;13.90;99.90;;;;;;4992011;28;20066;-46
2022/10/09 12:57:51;;;;;;;4.80;1.10;;;13.90;99.90;;;;;;4991739;28;20106;-46
2022/10/09 13:00:16;;;;;;;2.05;1.40;;;14.00;99.90;;;;;;4991283;28;20505;-48
2022/10/09 13:02:42;;;;;;;5.15;1.77;;;14.00;99.90;;;;;;4992493;28;20061;-46
2022/10/09 13:05:07;;;;;;;10.05;1.60;;;14.00;99.90;;;;;;4991288;28;20064;-47
2022/10/09 13:07:33;;;;;;;5.50;1.50;;;14.00;99.90;;;;;;5005860;22;20042;-50
2022/10/09 13:10:03;;;;;;;2.58;1.17;;;14.10;99.90;;;;;;4981131;28;20069;-51